sensor_id;sensor_type;location;lat;lon;timestamp;P1;durP1;ratioP1;P2;durP2;ratioP2
60436;SDS011;46289;51.992;4.498;2024-03-06T00:01:33;29.42;;;14.52;;
60436;SDS011;46289;51.992;4.498;2024-03-06T00:03:38;31.30;;;15.68;;
60436;SDS011;46289;51.992;4.498;2024-03-06T00:05:43;29.75;;;15.52;;
60436;SDS011;46289;51.992;4.498;2024-03-06T00:07:49;26.33;;;13.88;;
60436;SDS011;46289;51.992;4.498;2024-03-06T00:09:54;28.85;;;15.23;;
60436;SDS011;46289;51.992;4.498;2024-03-06T00:11:59;30.75;;;15.50;;
60436;SDS011;46289;51.992;4.498;2024-03-06T00:14:04;31.45;;;15.27;;
60436;SDS011;46289;51.992;4.498;2024-03-06T00:16:09;29.17;;;15.65;;
60436;SDS011;46289;51.992;4.498;2024-03-06T00:18:17;30.80;;;16.60;;
60436;SDS011;46289;51.992;4.498;2024-03-06T00:20:23;32.45;;;17.40;;
60436;SDS011;46289;51.992;4.498;2024-03-06T00:22:29;33.10;;;16.30;;
60436;SDS011;46289;51.992;4.498;2024-03-06T00:24:34;29.17;;;16.48;;
60436;SDS011;46289;51.992;4.498;2024-03-06T00:26:39;32.40;;;16.88;;
60436;SDS011;46289;51.992;4.498;2024-03-06T00:28:45;33.55;;;16.88;;
60436;SDS011;46289;51.992;4.498;2024-03-06T00:30:49;35.20;;;17.35;;
60436;SDS011;46289;51.992;4.498;2024-03-06T00:32:57;31.38;;;17.48;;
60436;SDS011;46289;51.992;4.498;2024-03-06T00:35:02;30.13;;;16.75;;
60436;SDS011;46289;51.992;4.498;2024-03-06T00:37:08;31.50;;;15.80;;
60436;SDS011;46289;51.992;4.498;2024-03-06T00:39:13;29.02;;;16.55;;
60436;SDS011;46289;51.992;4.498;2024-03-06T00:41:18;26.83;;;15.68;;
60436;SDS011;46289;51.992;4.498;2024-03-06T00:43:24;31.20;;;16.52;;
60436;SDS011;46289;51.992;4.498;2024-03-06T00:45:27;30.33;;;16.70;;
60436;SDS011;46289;51.992;4.498;2024-03-06T00:47:34;29.40;;;15.85;;
60436;SDS011;46289;51.992;4.498;2024-03-06T00:49:41;30.15;;;17.45;;
60436;SDS011;46289;51.992;4.498;2024-03-06T00:51:46;32.35;;;18.88;;
60436;SDS011;46289;51.992;4.498;2024-03-06T00:53:51;29.00;;;16.63;;
60436;SDS011;46289;51.992;4.498;2024-03-06T00:55:56;31.13;;;17.65;;
60436;SDS011;46289;51.992;4.498;2024-03-06T00:58:02;32.85;;;16.63;;
60436;SDS011;46289;51.992;4.498;2024-03-06T01:00:08;30.02;;;17.20;;
60436;SDS011;46289;51.992;4.498;2024-03-06T01:02:15;34.03;;;16.98;;
60436;SDS011;46289;51.992;4.498;2024-03-06T01:04:20;27.73;;;17.15;;
60436;SDS011;46289;51.992;4.498;2024-03-06T01:06:27;27.92;;;15.98;;
60436;SDS011;46289;51.992;4.498;2024-03-06T01:08:32;31.92;;;17.42;;
60436;SDS011;46289;51.992;4.498;2024-03-06T01:10:37;31.42;;;17.48;;
60436;SDS011;46289;51.992;4.498;2024-03-06T01:12:42;30.02;;;16.63;;
60436;SDS011;46289;51.992;4.498;2024-03-06T01:14:47;30.42;;;17.10;;
60436;SDS011;46289;51.992;4.498;2024-03-06T01:16:52;31.52;;;16.52;;
60436;SDS011;46289;51.992;4.498;2024-03-06T01:18:57;32.00;;;17.95;;
60436;SDS011;46289;51.992;4.498;2024-03-06T01:21:02;31.02;;;17.77;;
60436;SDS011;46289;51.992;4.498;2024-03-06T01:23:10;32.30;;;17.17;;
60436;SDS011;46289;51.992;4.498;2024-03-06T01:25:15;28.00;;;17.35;;
60436;SDS011;46289;51.992;4.498;2024-03-06T01:27:22;28.23;;;16.92;;
60436;SDS011;46289;51.992;4.498;2024-03-06T01:29:27;29.85;;;18.70;;
60436;SDS011;46289;51.992;4.498;2024-03-06T01:31:33;28.80;;;17.23;;
60436;SDS011;46289;51.992;4.498;2024-03-06T01:33:38;28.50;;;18.23;;
60436;SDS011;46289;51.992;4.498;2024-03-06T01:35:43;29.13;;;16.65;;
60436;SDS011;46289;51.992;4.498;2024-03-06T01:37:45;32.83;;;17.98;;
60436;SDS011;46289;51.992;4.498;2024-03-06T01:39:53;28.67;;;16.70;;
60436;SDS011;46289;51.992;4.498;2024-03-06T01:41:57;29.17;;;17.08;;
60436;SDS011;46289;51.992;4.498;2024-03-06T01:44:03;28.88;;;17.15;;
60436;SDS011;46289;51.992;4.498;2024-03-06T01:46:08;32.33;;;19.77;;
60436;SDS011;46289;51.992;4.498;2024-03-06T01:48:13;32.22;;;17.10;;
60436;SDS011;46289;51.992;4.498;2024-03-06T01:50:16;33.42;;;17.48;;
60436;SDS011;46289;51.992;4.498;2024-03-06T01:52:22;30.65;;;17.23;;
60436;SDS011;46289;51.992;4.498;2024-03-06T01:54:29;29.20;;;16.55;;
60436;SDS011;46289;51.992;4.498;2024-03-06T01:56:38;29.40;;;16.67;;
60436;SDS011;46289;51.992;4.498;2024-03-06T01:58:48;30.17;;;16.17;;
60436;SDS011;46289;51.992;4.498;2024-03-06T02:00:57;31.35;;;18.70;;
60436;SDS011;46289;51.992;4.498;2024-03-06T02:03:03;27.20;;;16.13;;
60436;SDS011;46289;51.992;4.498;2024-03-06T02:05:08;27.13;;;16.45;;
60436;SDS011;46289;51.992;4.498;2024-03-06T02:07:14;29.15;;;17.45;;
60436;SDS011;46289;51.992;4.498;2024-03-06T02:09:23;28.80;;;16.35;;
60436;SDS011;46289;51.992;4.498;2024-03-06T02:11:29;32.80;;;18.60;;
60436;SDS011;46289;51.992;4.498;2024-03-06T02:13:39;30.52;;;18.33;;
60436;SDS011;46289;51.992;4.498;2024-03-06T02:15:45;28.10;;;15.98;;
60436;SDS011;46289;51.992;4.498;2024-03-06T02:17:50;31.55;;;17.92;;
60436;SDS011;46289;51.992;4.498;2024-03-06T02:19:55;29.75;;;17.50;;
60436;SDS011;46289;51.992;4.498;2024-03-06T02:22:05;26.65;;;17.70;;
60436;SDS011;46289;51.992;4.498;2024-03-06T02:24:07;34.58;;;18.70;;
60436;SDS011;46289;51.992;4.498;2024-03-06T02:26:13;33.97;;;17.52;;
60436;SDS011;46289;51.992;4.498;2024-03-06T02:28:18;30.17;;;18.23;;
60436;SDS011;46289;51.992;4.498;2024-03-06T02:30:24;35.30;;;19.60;;
60436;SDS011;46289;51.992;4.498;2024-03-06T02:32:29;34.97;;;18.60;;
60436;SDS011;46289;51.992;4.498;2024-03-06T02:34:36;29.67;;;16.63;;
60436;SDS011;46289;51.992;4.498;2024-03-06T02:36:42;34.75;;;18.73;;
60436;SDS011;46289;51.992;4.498;2024-03-06T02:38:50;31.65;;;19.17;;
60436;SDS011;46289;51.992;4.498;2024-03-06T02:40:54;29.35;;;17.33;;
60436;SDS011;46289;51.992;4.498;2024-03-06T02:43:00;33.72;;;17.73;;
60436;SDS011;46289;51.992;4.498;2024-03-06T02:45:06;34.13;;;19.55;;
60436;SDS011;46289;51.992;4.498;2024-03-06T02:47:11;29.73;;;16.90;;
60436;SDS011;46289;51.992;4.498;2024-03-06T02:49:17;35.08;;;18.90;;
60436;SDS011;46289;51.992;4.498;2024-03-06T02:51:23;31.45;;;18.35;;
60436;SDS011;46289;51.992;4.498;2024-03-06T02:53:26;35.88;;;18.63;;
60436;SDS011;46289;51.992;4.498;2024-03-06T02:55:33;32.03;;;17.25;;
60436;SDS011;46289;51.992;4.498;2024-03-06T02:57:38;29.40;;;17.63;;
60436;SDS011;46289;51.992;4.498;2024-03-06T02:59:43;29.63;;;16.92;;
60436;SDS011;46289;51.992;4.498;2024-03-06T03:01:48;32.75;;;18.13;;
60436;SDS011;46289;51.992;4.498;2024-03-06T03:03:54;28.42;;;17.65;;
60436;SDS011;46289;51.992;4.498;2024-03-06T03:05:58;36.65;;;20.23;;
60436;SDS011;46289;51.992;4.498;2024-03-06T03:08:05;32.35;;;19.05;;
60436;SDS011;46289;51.992;4.498;2024-03-06T03:10:11;31.55;;;18.15;;
60436;SDS011;46289;51.992;4.498;2024-03-06T03:12:16;32.67;;;19.42;;
60436;SDS011;46289;51.992;4.498;2024-03-06T03:14:21;29.80;;;17.90;;
60436;SDS011;46289;51.992;4.498;2024-03-06T03:16:27;29.05;;;19.38;;
60436;SDS011;46289;51.992;4.498;2024-03-06T03:18:29;31.98;;;19.98;;
60436;SDS011;46289;51.992;4.498;2024-03-06T03:20:34;32.53;;;19.00;;
60436;SDS011;46289;51.992;4.498;2024-03-06T03:22:40;32.28;;;18.38;;
60436;SDS011;46289;51.992;4.498;2024-03-06T03:24:45;35.80;;;21.83;;
60436;SDS011;46289;51.992;4.498;2024-03-06T03:26:50;31.95;;;18.30;;
60436;SDS011;46289;51.992;4.498;2024-03-06T03:28:58;33.53;;;18.75;;
60436;SDS011;46289;51.992;4.498;2024-03-06T03:31:04;34.47;;;19.42;;
60436;SDS011;46289;51.992;4.498;2024-03-06T03:33:10;34.08;;;19.38;;
60436;SDS011;46289;51.992;4.498;2024-03-06T03:35:16;31.92;;;19.33;;
60436;SDS011;46289;51.992;4.498;2024-03-06T03:37:26;34.97;;;19.90;;
60436;SDS011;46289;51.992;4.498;2024-03-06T03:39:33;27.25;;;19.00;;
60436;SDS011;46289;51.992;4.498;2024-03-06T03:41:38;28.00;;;17.98;;
60436;SDS011;46289;51.992;4.498;2024-03-06T03:43:44;32.35;;;18.58;;
60436;SDS011;46289;51.992;4.498;2024-03-06T03:45:53;36.15;;;20.85;;
60436;SDS011;46289;51.992;4.498;2024-03-06T03:47:58;38.03;;;19.38;;
60436;SDS011;46289;51.992;4.498;2024-03-06T03:50:04;30.13;;;19.77;;
60436;SDS011;46289;51.992;4.498;2024-03-06T03:52:12;29.45;;;18.30;;
60436;SDS011;46289;51.992;4.498;2024-03-06T03:54:20;34.15;;;19.88;;
60436;SDS011;46289;51.992;4.498;2024-03-06T03:56:25;32.00;;;18.55;;
60436;SDS011;46289;51.992;4.498;2024-03-06T03:58:31;31.15;;;19.42;;
60436;SDS011;46289;51.992;4.498;2024-03-06T04:00:36;38.30;;;21.02;;
60436;SDS011;46289;51.992;4.498;2024-03-06T04:02:44;39.83;;;22.30;;
60436;SDS011;46289;51.992;4.498;2024-03-06T04:04:49;40.45;;;21.00;;
60436;SDS011;46289;51.992;4.498;2024-03-06T04:06:54;31.27;;;19.63;;
60436;SDS011;46289;51.992;4.498;2024-03-06T04:09:04;38.20;;;21.83;;
60436;SDS011;46289;51.992;4.498;2024-03-06T04:11:11;28.42;;;18.17;;
60436;SDS011;46289;51.992;4.498;2024-03-06T04:13:17;37.50;;;20.40;;
60436;SDS011;46289;51.992;4.498;2024-03-06T04:15:24;37.85;;;20.63;;
60436;SDS011;46289;51.992;4.498;2024-03-06T04:17:29;31.98;;;18.25;;
60436;SDS011;46289;51.992;4.498;2024-03-06T04:19:37;32.90;;;20.30;;
60436;SDS011;46289;51.992;4.498;2024-03-06T04:21:42;33.22;;;20.70;;
60436;SDS011;46289;51.992;4.498;2024-03-06T04:23:47;36.88;;;20.92;;
60436;SDS011;46289;51.992;4.498;2024-03-06T04:25:52;34.28;;;21.05;;
60436;SDS011;46289;51.992;4.498;2024-03-06T04:27:57;35.58;;;21.25;;
60436;SDS011;46289;51.992;4.498;2024-03-06T04:29:59;35.80;;;21.65;;
60436;SDS011;46289;51.992;4.498;2024-03-06T04:32:07;34.10;;;18.77;;
60436;SDS011;46289;51.992;4.498;2024-03-06T04:34:12;35.72;;;20.90;;
60436;SDS011;46289;51.992;4.498;2024-03-06T04:36:23;31.23;;;18.08;;
60436;SDS011;46289;51.992;4.498;2024-03-06T04:38:28;35.80;;;20.15;;
60436;SDS011;46289;51.992;4.498;2024-03-06T04:40:33;33.97;;;20.15;;
60436;SDS011;46289;51.992;4.498;2024-03-06T04:42:36;30.45;;;17.70;;
60436;SDS011;46289;51.992;4.498;2024-03-06T04:44:41;28.02;;;16.83;;
60436;SDS011;46289;51.992;4.498;2024-03-06T04:46:49;28.98;;;16.50;;
60436;SDS011;46289;51.992;4.498;2024-03-06T04:48:54;27.20;;;16.45;;
60436;SDS011;46289;51.992;4.498;2024-03-06T04:50:59;30.85;;;18.65;;
60436;SDS011;46289;51.992;4.498;2024-03-06T04:53:07;33.30;;;18.25;;
60436;SDS011;46289;51.992;4.498;2024-03-06T04:55:12;31.33;;;18.77;;
60436;SDS011;46289;51.992;4.498;2024-03-06T04:57:24;31.27;;;18.70;;
60436;SDS011;46289;51.992;4.498;2024-03-06T04:59:30;31.85;;;19.80;;
60436;SDS011;46289;51.992;4.498;2024-03-06T05:01:35;29.48;;;16.85;;
60436;SDS011;46289;51.992;4.498;2024-03-06T05:03:40;33.55;;;19.67;;
60436;SDS011;46289;51.992;4.498;2024-03-06T05:05:59;29.42;;;19.08;;
60436;SDS011;46289;51.992;4.498;2024-03-06T05:08:21;36.30;;;18.38;;
60436;SDS011;46289;51.992;4.498;2024-03-06T05:10:40;33.33;;;19.17;;
60436;SDS011;46289;51.992;4.498;2024-03-06T05:12:58;31.77;;;17.95;;
60436;SDS011;46289;51.992;4.498;2024-03-06T05:15:18;24.17;;;15.82;;
60436;SDS011;46289;51.992;4.498;2024-03-06T05:17:39;28.38;;;19.15;;
60436;SDS011;46289;51.992;4.498;2024-03-06T05:19:59;28.90;;;16.95;;
60436;SDS011;46289;51.992;4.498;2024-03-06T05:22:19;28.77;;;17.38;;
60436;SDS011;46289;51.992;4.498;2024-03-06T05:24:41;33.00;;;17.17;;
60436;SDS011;46289;51.992;4.498;2024-03-06T05:27:00;29.65;;;16.70;;
60436;SDS011;46289;51.992;4.498;2024-03-06T05:29:19;28.33;;;16.90;;
60436;SDS011;46289;51.992;4.498;2024-03-06T05:31:38;29.52;;;17.13;;
60436;SDS011;46289;51.992;4.498;2024-03-06T05:33:57;29.35;;;16.67;;
60436;SDS011;46289;51.992;4.498;2024-03-06T05:36:13;33.53;;;19.13;;
60436;SDS011;46289;51.992;4.498;2024-03-06T05:38:33;27.10;;;17.00;;
60436;SDS011;46289;51.992;4.498;2024-03-06T05:40:54;30.88;;;17.52;;
60436;SDS011;46289;51.992;4.498;2024-03-06T05:43:13;27.38;;;15.50;;
60436;SDS011;46289;51.992;4.498;2024-03-06T05:45:35;28.27;;;16.83;;
60436;SDS011;46289;51.992;4.498;2024-03-06T05:47:54;30.60;;;17.47;;
60436;SDS011;46289;51.992;4.498;2024-03-06T05:50:14;30.90;;;16.63;;
60436;SDS011;46289;51.992;4.498;2024-03-06T06:44:09;29.33;;;15.98;;
60436;SDS011;46289;51.992;4.498;2024-03-06T06:46:15;21.85;;;14.35;;
60436;SDS011;46289;51.992;4.498;2024-03-06T06:48:24;26.02;;;18.40;;
60436;SDS011;46289;51.992;4.498;2024-03-06T06:50:30;27.38;;;15.60;;
60436;SDS011;46289;51.992;4.498;2024-03-06T06:52:35;22.92;;;15.55;;
60436;SDS011;46289;51.992;4.498;2024-03-06T06:54:43;39.78;;;17.35;;
60436;SDS011;46289;51.992;4.498;2024-03-06T06:56:51;24.13;;;17.00;;
60436;SDS011;46289;51.992;4.498;2024-03-06T06:59:01;24.25;;;15.90;;
60436;SDS011;46289;51.992;4.498;2024-03-06T07:01:09;31.15;;;15.55;;
60436;SDS011;46289;51.992;4.498;2024-03-06T07:03:14;24.70;;;14.73;;
60436;SDS011;46289;51.992;4.498;2024-03-06T07:05:16;23.88;;;15.65;;
60436;SDS011;46289;51.992;4.498;2024-03-06T07:07:23;25.63;;;15.68;;
60436;SDS011;46289;51.992;4.498;2024-03-06T07:09:29;30.70;;;16.42;;
60436;SDS011;46289;51.992;4.498;2024-03-06T07:11:38;30.10;;;16.45;;
60436;SDS011;46289;51.992;4.498;2024-03-06T07:13:43;33.38;;;17.77;;
60436;SDS011;46289;51.992;4.498;2024-03-06T07:15:51;29.77;;;16.50;;
60436;SDS011;46289;51.992;4.498;2024-03-06T07:17:56;26.10;;;16.65;;
60436;SDS011;46289;51.992;4.498;2024-03-06T07:20:02;27.55;;;17.67;;
60436;SDS011;46289;51.992;4.498;2024-03-06T07:22:07;27.33;;;17.45;;
60436;SDS011;46289;51.992;4.498;2024-03-06T07:24:12;22.60;;;15.18;;
60436;SDS011;46289;51.992;4.498;2024-03-06T07:26:19;30.40;;;17.77;;
60436;SDS011;46289;51.992;4.498;2024-03-06T07:28:24;28.92;;;18.95;;
60436;SDS011;46289;51.992;4.498;2024-03-06T07:30:29;25.63;;;17.08;;
60436;SDS011;46289;51.992;4.498;2024-03-06T07:32:38;27.67;;;16.75;;
60436;SDS011;46289;51.992;4.498;2024-03-06T07:34:47;27.98;;;17.23;;
60436;SDS011;46289;51.992;4.498;2024-03-06T07:36:52;31.38;;;16.80;;
60436;SDS011;46289;51.992;4.498;2024-03-06T07:38:57;29.92;;;17.45;;
60436;SDS011;46289;51.992;4.498;2024-03-06T07:41:02;29.38;;;19.60;;
60436;SDS011;46289;51.992;4.498;2024-03-06T07:43:08;29.08;;;18.00;;
60436;SDS011;46289;51.992;4.498;2024-03-06T07:45:18;31.17;;;19.75;;
60436;SDS011;46289;51.992;4.498;2024-03-06T07:47:25;29.83;;;19.05;;
60436;SDS011;46289;51.992;4.498;2024-03-06T07:49:33;31.88;;;19.05;;
60436;SDS011;46289;51.992;4.498;2024-03-06T07:51:41;35.28;;;21.40;;
60436;SDS011;46289;51.992;4.498;2024-03-06T07:53:47;36.35;;;21.25;;
60436;SDS011;46289;51.992;4.498;2024-03-06T07:55:54;29.23;;;19.20;;
60436;SDS011;46289;51.992;4.498;2024-03-06T07:57:59;32.55;;;19.77;;
60436;SDS011;46289;51.992;4.498;2024-03-06T08:00:06;39.20;;;20.70;;
60436;SDS011;46289;51.992;4.498;2024-03-06T08:02:17;30.25;;;20.05;;
60436;SDS011;46289;51.992;4.498;2024-03-06T08:04:20;35.05;;;22.40;;
60436;SDS011;46289;51.992;4.498;2024-03-06T08:06:25;38.58;;;22.05;;
60436;SDS011;46289;51.992;4.498;2024-03-06T08:08:36;33.75;;;19.70;;
60436;SDS011;46289;51.992;4.498;2024-03-06T08:10:46;36.53;;;22.30;;
60436;SDS011;46289;51.992;4.498;2024-03-06T08:12:53;36.55;;;22.77;;
60436;SDS011;46289;51.992;4.498;2024-03-06T08:14:59;38.17;;;22.73;;
60436;SDS011;46289;51.992;4.498;2024-03-06T08:17:04;35.17;;;21.67;;
60436;SDS011;46289;51.992;4.498;2024-03-06T08:19:09;39.90;;;23.50;;
60436;SDS011;46289;51.992;4.498;2024-03-06T08:21:17;36.85;;;23.65;;
60436;SDS011;46289;51.992;4.498;2024-03-06T08:23:24;40.40;;;25.10;;
60436;SDS011;46289;51.992;4.498;2024-03-06T08:25:32;38.10;;;23.40;;
60436;SDS011;46289;51.992;4.498;2024-03-06T08:27:39;39.72;;;24.23;;
60436;SDS011;46289;51.992;4.498;2024-03-06T08:29:45;39.28;;;23.67;;
60436;SDS011;46289;51.992;4.498;2024-03-06T08:31:47;37.53;;;23.83;;
60436;SDS011;46289;51.992;4.498;2024-03-06T08:33:52;38.60;;;25.20;;
60436;SDS011;46289;51.992;4.498;2024-03-06T08:35:57;37.70;;;23.63;;
60436;SDS011;46289;51.992;4.498;2024-03-06T08:38:02;37.83;;;24.38;;
60436;SDS011;46289;51.992;4.498;2024-03-06T08:40:09;39.08;;;24.25;;
60436;SDS011;46289;51.992;4.498;2024-03-06T08:42:19;45.55;;;25.45;;
60436;SDS011;46289;51.992;4.498;2024-03-06T08:44:24;43.45;;;26.50;;
60436;SDS011;46289;51.992;4.498;2024-03-06T08:46:32;49.53;;;28.45;;
60436;SDS011;46289;51.992;4.498;2024-03-06T08:48:37;44.15;;;27.05;;
60436;SDS011;46289;51.992;4.498;2024-03-06T08:50:42;47.67;;;26.98;;
60436;SDS011;46289;51.992;4.498;2024-03-06T08:52:48;40.20;;;26.90;;
60436;SDS011;46289;51.992;4.498;2024-03-06T08:54:53;43.50;;;25.23;;
60436;SDS011;46289;51.992;4.498;2024-03-06T08:56:56;50.15;;;27.15;;
60436;SDS011;46289;51.992;4.498;2024-03-06T08:59:04;46.25;;;27.63;;
60436;SDS011;46289;51.992;4.498;2024-03-06T09:01:09;43.72;;;27.38;;
60436;SDS011;46289;51.992;4.498;2024-03-06T09:03:12;44.55;;;25.75;;
60436;SDS011;46289;51.992;4.498;2024-03-06T09:05:19;44.38;;;24.75;;
60436;SDS011;46289;51.992;4.498;2024-03-06T09:07:30;40.65;;;24.95;;
60436;SDS011;46289;51.992;4.498;2024-03-06T09:09:39;30.67;;;22.38;;
60436;SDS011;46289;51.992;4.498;2024-03-06T09:11:44;39.03;;;24.95;;
60436;SDS011;46289;51.992;4.498;2024-03-06T09:13:49;35.15;;;24.00;;
60436;SDS011;46289;51.992;4.498;2024-03-06T09:15:56;39.20;;;24.40;;
60436;SDS011;46289;51.992;4.498;2024-03-06T09:18:01;34.60;;;21.55;;
60436;SDS011;46289;51.992;4.498;2024-03-06T09:20:08;35.58;;;21.98;;
60436;SDS011;46289;51.992;4.498;2024-03-06T09:22:15;40.05;;;22.52;;
60436;SDS011;46289;51.992;4.498;2024-03-06T09:24:21;35.25;;;23.42;;
60436;SDS011;46289;51.992;4.498;2024-03-06T09:26:32;37.45;;;21.70;;
60436;SDS011;46289;51.992;4.498;2024-03-06T09:28:39;39.17;;;21.85;;
60436;SDS011;46289;51.992;4.498;2024-03-06T09:30:44;37.10;;;23.05;;
60436;SDS011;46289;51.992;4.498;2024-03-06T09:32:51;38.63;;;22.15;;
60436;SDS011;46289;51.992;4.498;2024-03-06T09:34:57;38.55;;;23.83;;
60436;SDS011;46289;51.992;4.498;2024-03-06T09:37:00;33.67;;;21.80;;
60436;SDS011;46289;51.992;4.498;2024-03-06T09:39:05;35.72;;;20.27;;
60436;SDS011;46289;51.992;4.498;2024-03-06T09:41:11;36.35;;;21.13;;
60436;SDS011;46289;51.992;4.498;2024-03-06T09:43:16;31.45;;;21.33;;
60436;SDS011;46289;51.992;4.498;2024-03-06T09:45:18;33.20;;;20.80;;
60436;SDS011;46289;51.992;4.498;2024-03-06T09:47:25;35.13;;;20.35;;
60436;SDS011;46289;51.992;4.498;2024-03-06T09:49:38;36.28;;;21.52;;
60436;SDS011;46289;51.992;4.498;2024-03-06T09:51:45;37.85;;;21.95;;
60436;SDS011;46289;51.992;4.498;2024-03-06T09:53:54;29.83;;;20.15;;
60436;SDS011;46289;51.992;4.498;2024-03-06T09:55:57;32.38;;;18.52;;
60436;SDS011;46289;51.992;4.498;2024-03-06T09:58:04;30.55;;;17.75;;
60436;SDS011;46289;51.992;4.498;2024-03-06T10:00:10;31.10;;;16.67;;
60436;SDS011;46289;51.992;4.498;2024-03-06T10:02:25;29.38;;;17.08;;
60436;SDS011;46289;51.992;4.498;2024-03-06T10:04:38;26.45;;;16.05;;
60436;SDS011;46289;51.992;4.498;2024-03-06T10:06:43;26.30;;;15.70;;
60436;SDS011;46289;51.992;4.498;2024-03-06T10:08:50;28.70;;;16.50;;
60436;SDS011;46289;51.992;4.498;2024-03-06T10:10:55;25.23;;;14.82;;
60436;SDS011;46289;51.992;4.498;2024-03-06T10:13:01;27.38;;;14.73;;
60436;SDS011;46289;51.992;4.498;2024-03-06T10:15:09;17.27;;;10.82;;
60436;SDS011;46289;51.992;4.498;2024-03-06T10:17:14;21.10;;;10.55;;
60436;SDS011;46289;51.992;4.498;2024-03-06T10:19:30;20.08;;;11.50;;
60436;SDS011;46289;51.992;4.498;2024-03-06T10:21:43;20.95;;;10.75;;
60436;SDS011;46289;51.992;4.498;2024-03-06T10:23:50;16.63;;;10.45;;
60436;SDS011;46289;51.992;4.498;2024-03-06T10:26:02;19.83;;;9.70;;
60436;SDS011;46289;51.992;4.498;2024-03-06T10:28:11;16.13;;;9.70;;
60436;SDS011;46289;51.992;4.498;2024-03-06T10:32:20;17.13;;;9.32;;
60436;SDS011;46289;51.992;4.498;2024-03-06T10:34:28;14.93;;;8.25;;
60436;SDS011;46289;51.992;4.498;2024-03-06T10:36:33;13.60;;;7.38;;
60436;SDS011;46289;51.992;4.498;2024-03-06T10:38:42;17.50;;;8.57;;
60436;SDS011;46289;51.992;4.498;2024-03-06T10:40:51;15.68;;;7.07;;
60436;SDS011;46289;51.992;4.498;2024-03-06T10:42:59;15.05;;;7.55;;
60436;SDS011;46289;51.992;4.498;2024-03-06T10:45:07;16.40;;;9.10;;
60436;SDS011;46289;51.992;4.498;2024-03-06T10:47:12;16.05;;;9.32;;
60436;SDS011;46289;51.992;4.498;2024-03-06T10:49:22;15.93;;;8.70;;
60436;SDS011;46289;51.992;4.498;2024-03-06T10:51:29;12.38;;;7.43;;
60436;SDS011;46289;51.992;4.498;2024-03-06T10:53:35;16.70;;;7.03;;
60436;SDS011;46289;51.992;4.498;2024-03-06T10:55:47;12.60;;;7.65;;
60436;SDS011;46289;51.992;4.498;2024-03-06T10:57:54;16.17;;;7.75;;
60436;SDS011;46289;51.992;4.498;2024-03-06T11:00:01;16.40;;;8.00;;
60436;SDS011;46289;51.992;4.498;2024-03-06T11:02:07;14.38;;;7.68;;
60436;SDS011;46289;51.992;4.498;2024-03-06T11:04:14;15.02;;;8.05;;
60436;SDS011;46289;51.992;4.498;2024-03-06T11:06:28;17.00;;;8.02;;
60436;SDS011;46289;51.992;4.498;2024-03-06T11:08:35;16.33;;;7.60;;
60436;SDS011;46289;51.992;4.498;2024-03-06T11:10:53;15.20;;;7.60;;
60436;SDS011;46289;51.992;4.498;2024-03-06T11:12:57;15.63;;;8.40;;
60436;SDS011;46289;51.992;4.498;2024-03-06T11:15:15;17.23;;;8.35;;
60436;SDS011;46289;51.992;4.498;2024-03-06T11:17:24;16.10;;;9.15;;
60436;SDS011;46289;51.992;4.498;2024-03-06T11:19:30;14.20;;;7.25;;
60436;SDS011;46289;51.992;4.498;2024-03-06T11:21:45;15.57;;;7.63;;
60436;SDS011;46289;51.992;4.498;2024-03-06T11:26:20;11.32;;;6.30;;
60436;SDS011;46289;51.992;4.498;2024-03-06T11:28:28;11.25;;;5.93;;
60436;SDS011;46289;51.992;4.498;2024-03-06T11:30:35;9.32;;;5.10;;
60436;SDS011;46289;51.992;4.498;2024-03-06T11:32:58;13.43;;;6.18;;
60436;SDS011;46289;51.992;4.498;2024-03-06T11:35:05;11.70;;;6.15;;
60436;SDS011;46289;51.992;4.498;2024-03-06T11:37:12;12.32;;;5.88;;
60436;SDS011;46289;51.992;4.498;2024-03-06T11:39:17;14.20;;;6.50;;
60436;SDS011;46289;51.992;4.498;2024-03-06T11:41:25;10.80;;;6.00;;
60436;SDS011;46289;51.992;4.498;2024-03-06T11:43:50;10.25;;;5.28;;
60436;SDS011;46289;51.992;4.498;2024-03-06T11:46:14;9.93;;;5.18;;
60436;SDS011;46289;51.992;4.498;2024-03-06T11:48:53;9.00;;;5.32;;
60436;SDS011;46289;51.992;4.498;2024-03-06T11:51:00;8.98;;;5.70;;
60436;SDS011;46289;51.992;4.498;2024-03-06T11:53:04;10.95;;;6.45;;
60436;SDS011;46289;51.992;4.498;2024-03-06T11:55:11;13.43;;;7.07;;
60436;SDS011;46289;51.992;4.498;2024-03-06T11:57:20;11.57;;;5.80;;
60436;SDS011;46289;51.992;4.498;2024-03-06T11:59:26;9.80;;;6.07;;
60436;SDS011;46289;51.992;4.498;2024-03-06T12:01:31;9.75;;;5.05;;
60436;SDS011;46289;51.992;4.498;2024-03-06T12:03:38;9.60;;;5.13;;
60436;SDS011;46289;51.992;4.498;2024-03-06T12:05:45;11.13;;;5.93;;
60436;SDS011;46289;51.992;4.498;2024-03-06T12:07:51;10.05;;;5.30;;
60436;SDS011;46289;51.992;4.498;2024-03-06T12:09:58;10.68;;;6.10;;
60436;SDS011;46289;51.992;4.498;2024-03-06T12:12:03;9.60;;;5.45;;
60436;SDS011;46289;51.992;4.498;2024-03-06T14:16:44;9.07;;;4.97;;
60436;SDS011;46289;51.992;4.498;2024-03-06T14:19:05;7.43;;;4.93;;
60436;SDS011;46289;51.992;4.498;2024-03-06T14:21:10;9.02;;;4.90;;
60436;SDS011;46289;51.992;4.498;2024-03-06T14:23:33;7.93;;;4.53;;
60436;SDS011;46289;51.992;4.498;2024-03-06T14:25:38;6.50;;;4.15;;
60436;SDS011;46289;51.992;4.498;2024-03-06T14:27:43;8.20;;;4.72;;
60436;SDS011;46289;51.992;4.498;2024-03-06T14:33:00;7.55;;;3.92;;
60436;SDS011;46289;51.992;4.498;2024-03-06T14:35:18;7.57;;;4.43;;
60436;SDS011;46289;51.992;4.498;2024-03-06T14:37:39;8.63;;;4.78;;
60436;SDS011;46289;51.992;4.498;2024-03-06T14:39:48;8.27;;;3.97;;
60436;SDS011;46289;51.992;4.498;2024-03-06T14:41:53;7.57;;;4.15;;
60436;SDS011;46289;51.992;4.498;2024-03-06T14:44:23;7.40;;;3.92;;
60436;SDS011;46289;51.992;4.498;2024-03-06T14:46:46;7.63;;;3.42;;
60436;SDS011;46289;51.992;4.498;2024-03-06T14:48:49;7.63;;;4.28;;
60436;SDS011;46289;51.992;4.498;2024-03-06T14:50:54;10.50;;;4.50;;
60436;SDS011;46289;51.992;4.498;2024-03-06T14:52:56;7.20;;;3.90;;
60436;SDS011;46289;51.992;4.498;2024-03-06T14:55:02;8.23;;;4.38;;
60436;SDS011;46289;51.992;4.498;2024-03-06T14:57:10;7.05;;;4.07;;
60436;SDS011;46289;51.992;4.498;2024-03-06T14:59:51;6.57;;;4.18;;
60436;SDS011;46289;51.992;4.498;2024-03-06T15:02:33;9.27;;;5.07;;
60436;SDS011;46289;51.992;4.498;2024-03-06T15:05:15;9.18;;;4.80;;
60436;SDS011;46289;51.992;4.498;2024-03-06T15:07:48;9.27;;;5.20;;
60436;SDS011;46289;51.992;4.498;2024-03-06T15:09:54;8.73;;;4.63;;
60436;SDS011;46289;51.992;4.498;2024-03-06T15:12:01;9.25;;;4.93;;
60436;SDS011;46289;51.992;4.498;2024-03-06T15:14:43;8.73;;;4.90;;
60436;SDS011;46289;51.992;4.498;2024-03-06T15:17:16;9.90;;;5.32;;
60436;SDS011;46289;51.992;4.498;2024-03-06T15:19:33;8.52;;;5.13;;
60436;SDS011;46289;51.992;4.498;2024-03-06T15:21:43;9.32;;;5.30;;
60436;SDS011;46289;51.992;4.498;2024-03-06T15:23:49;11.32;;;6.18;;
60436;SDS011;46289;51.992;4.498;2024-03-06T15:26:03;9.13;;;5.05;;
60436;SDS011;46289;51.992;4.498;2024-03-06T15:28:33;9.80;;;5.38;;
60436;SDS011;46289;51.992;4.498;2024-03-06T15:30:55;8.82;;;4.65;;
60436;SDS011;46289;51.992;4.498;2024-03-06T15:33:01;9.98;;;5.45;;
60436;SDS011;46289;51.992;4.498;2024-03-06T15:35:09;8.27;;;5.05;;
60436;SDS011;46289;51.992;4.498;2024-03-06T15:37:45;9.45;;;4.85;;